sensor_id;sensor_type;location;lat;lon;timestamp;pressure;altitude;pressure_sealevel;temperature;humidity
70011;BME280;59543;37.950;-122.338;2022-08-19T00:01:40;101155.63;;;20.35;61.18
70011;BME280;59543;37.950;-122.338;2022-08-19T00:04:09;101147.59;;;20.27;61.14
70011;BME280;59543;37.950;-122.338;2022-08-19T00:06:37;101146.47;;;20.08;62.40
70011;BME280;59543;37.950;-122.338;2022-08-19T00:09:06;101138.19;;;20.36;62.08
70011;BME280;59543;37.950;-122.338;2022-08-19T00:11:33;101145.78;;;20.41;61.55
70011;BME280;59543;37.950;-122.338;2022-08-19T00:14:05;101150.34;;;20.27;61.44
70011;BME280;59543;37.950;-122.338;2022-08-19T00:16:32;101147.00;;;20.25;61.91
70011;BME280;59543;37.950;-122.338;2022-08-19T00:18:58;101148.75;;;20.46;61.82
70011;BME280;59543;37.950;-122.338;2022-08-19T00:21:26;101151.25;;;20.41;61.25
70011;BME280;59543;37.950;-122.338;2022-08-19T00:23:54;101148.09;;;20.37;61.59
70011;BME280;59543;37.950;-122.338;2022-08-19T00:26:20;101143.97;;;20.54;61.60
70011;BME280;59543;37.950;-122.338;2022-08-19T00:28:46;101150.63;;;20.45;61.47
70011;BME280;59543;37.950;-122.338;2022-08-19T00:31:13;101147.47;;;20.48;60.98
70011;BME280;59543;37.950;-122.338;2022-08-19T00:33:39;101148.28;;;20.36;61.45
70011;BME280;59543;37.950;-122.338;2022-08-19T00:36:07;101143.91;;;20.48;61.35
70011;BME280;59543;37.950;-122.338;2022-08-19T00:38:36;101155.47;;;20.02;62.62
70011;BME280;59543;37.950;-122.338;2022-08-19T00:41:04;101145.28;;;20.24;62.02
70011;BME280;59543;37.950;-122.338;2022-08-19T00:43:31;101146.22;;;20.51;61.85
70011;BME280;59543;37.950;-122.338;2022-08-19T00:45:57;101144.34;;;20.51;61.45
70011;BME280;59543;37.950;-122.338;2022-08-19T00:48:23;101135.59;;;20.63;61.50
70011;BME280;59543;37.950;-122.338;2022-08-19T00:50:50;101142.75;;;20.16;62.22
70011;BME280;59543;37.950;-122.338;2022-08-19T00:53:20;101140.06;;;19.94;63.49
70011;BME280;59543;37.950;-122.338;2022-08-19T00:55:50;101124.63;;;19.73;64.54
70011;BME280;59543;37.950;-122.338;2022-08-19T00:58:19;101135.28;;;19.96;64.22
70011;BME280;59543;37.950;-122.338;2022-08-19T01:00:47;101124.91;;;19.85;64.86
70011;BME280;59543;37.950;-122.338;2022-08-19T01:03:17;101133.44;;;19.47;65.42
70011;BME280;59543;37.950;-122.338;2022-08-19T01:05:45;101137.06;;;19.05;66.92
70011;BME280;59543;37.950;-122.338;2022-08-19T01:08:14;101131.72;;;19.18;66.98
70011;BME280;59543;37.950;-122.338;2022-08-19T01:10:50;101132.16;;;19.22;67.04
70011;BME280;59543;37.950;-122.338;2022-08-19T01:13:23;101131.31;;;19.21;67.15
70011;BME280;59543;37.950;-122.338;2022-08-19T01:16:11;101126.38;;;19.31;67.31
70011;BME280;59543;37.950;-122.338;2022-08-19T01:18:41;101124.72;;;18.87;68.14
70011;BME280;59543;37.950;-122.338;2022-08-19T01:21:18;101122.72;;;18.96;68.55
70011;BME280;59543;37.950;-122.338;2022-08-19T01:23:45;101119.59;;;18.99;68.57
70011;BME280;59543;37.950;-122.338;2022-08-19T01:26:18;101110.16;;;19.23;67.73
70011;BME280;59543;37.950;-122.338;2022-08-19T01:28:47;101116.56;;;18.87;68.68
70011;BME280;59543;37.950;-122.338;2022-08-19T01:31:16;101111.44;;;18.99;68.57
70011;BME280;59543;37.950;-122.338;2022-08-19T01:33:44;101111.06;;;18.66;69.20
70011;BME280;59543;37.950;-122.338;2022-08-19T01:36:15;101113.28;;;18.77;69.47
70011;BME280;59543;37.950;-122.338;2022-08-19T01:38:43;101117.13;;;18.83;69.28
70011;BME280;59543;37.950;-122.338;2022-08-19T01:41:10;101114.16;;;18.63;69.65
70011;BME280;59543;37.950;-122.338;2022-08-19T01:43:37;101109.25;;;18.37;70.98
70011;BME280;59543;37.950;-122.338;2022-08-19T01:46:04;101112.16;;;18.71;69.91
70011;BME280;59543;37.950;-122.338;2022-08-19T01:48:36;101113.88;;;18.58;70.39
70011;BME280;59543;37.950;-122.338;2022-08-19T01:51:03;101117.00;;;18.55;70.32
70011;BME280;59543;37.950;-122.338;2022-08-19T01:53:29;101120.59;;;18.40;70.98
70011;BME280;59543;37.950;-122.338;2022-08-19T01:55:56;101114.72;;;18.22;71.41
70011;BME280;59543;37.950;-122.338;2022-08-19T01:58:28;101113.69;;;18.23;71.70
70011;BME280;59543;37.950;-122.338;2022-08-19T02:00:56;101117.53;;;18.14;72.12
70011;BME280;59543;37.950;-122.338;2022-08-19T02:03:23;101128.72;;;18.04;72.16
70011;BME280;59543;37.950;-122.338;2022-08-19T02:05:57;101119.94;;;17.87;72.94
70011;BME280;59543;37.950;-122.338;2022-08-19T02:08:26;101126.16;;;17.73;73.80
70011;BME280;59543;37.950;-122.338;2022-08-19T02:10:53;101129.78;;;18.03;72.38
70011;BME280;59543;37.950;-122.338;2022-08-19T02:13:20;101129.84;;;18.10;72.29
70011;BME280;59543;37.950;-122.338;2022-08-19T02:15:46;101124.69;;;18.00;72.80
70011;BME280;59543;37.950;-122.338;2022-08-19T02:18:12;101127.19;;;17.72;73.52
70011;BME280;59543;37.950;-122.338;2022-08-19T02:20:40;101137.78;;;17.52;74.17
70011;BME280;59543;37.950;-122.338;2022-08-19T02:23:07;101138.88;;;17.43;74.60
70011;BME280;59543;37.950;-122.338;2022-08-19T02:25:37;101141.72;;;17.49;74.57
70011;BME280;59543;37.950;-122.338;2022-08-19T02:28:05;101132.69;;;17.11;75.75
70011;BME280;59543;37.950;-122.338;2022-08-19T02:30:32;101130.06;;;17.41;74.67
70011;BME280;59543;37.950;-122.338;2022-08-19T02:32:58;101139.72;;;17.43;74.79
70011;BME280;59543;37.950;-122.338;2022-08-19T02:35:25;101130.28;;;17.16;75.82
70011;BME280;59543;37.950;-122.338;2022-08-19T02:37:51;101131.13;;;17.17;75.69
70011;BME280;59543;37.950;-122.338;2022-08-19T02:40:36;101136.25;;;17.11;75.58
70011;BME280;59543;37.950;-122.338;2022-08-19T02:43:05;101129.53;;;17.22;75.28
70011;BME280;59543;37.950;-122.338;2022-08-19T02:45:38;101144.75;;;17.08;75.95
70011;BME280;59543;37.950;-122.338;2022-08-19T02:48:07;101146.47;;;16.86;76.88
70011;BME280;59543;37.950;-122.338;2022-08-19T02:50:38;101146.50;;;16.78;77.34
70011;BME280;59543;37.950;-122.338;2022-08-19T02:53:06;101152.06;;;16.54;77.99
70011;BME280;59543;37.950;-122.338;2022-08-19T02:55:34;101155.22;;;16.34;79.07
70011;BME280;59543;37.950;-122.338;2022-08-19T02:58:00;101153.44;;;16.50;78.91
70011;BME280;59543;37.950;-122.338;2022-08-19T03:00:27;101148.69;;;16.52;78.38
70011;BME280;59543;37.950;-122.338;2022-08-19T03:02:53;101148.34;;;16.55;77.86
70011;BME280;59543;37.950;-122.338;2022-08-19T03:05:20;101149.19;;;16.55;78.20
70011;BME280;59543;37.950;-122.338;2022-08-19T03:07:46;101147.00;;;16.51;77.91
70011;BME280;59543;37.950;-122.338;2022-08-19T03:10:15;101161.06;;;16.54;77.91
70011;BME280;59543;37.950;-122.338;2022-08-19T03:12:42;101164.22;;;16.35;78.33
70011;BME280;59543;37.950;-122.338;2022-08-19T03:15:08;101156.06;;;16.35;78.35
70011;BME280;59543;37.950;-122.338;2022-08-19T03:17:37;101147.78;;;16.28;78.03
70011;BME280;59543;37.950;-122.338;2022-08-19T03:20:04;101153.06;;;16.21;78.61
70011;BME280;59543;37.950;-122.338;2022-08-19T03:22:31;101165.28;;;16.26;78.15
70011;BME280;59543;37.950;-122.338;2022-08-19T03:24:58;101160.34;;;16.21;78.18
70011;BME280;59543;37.950;-122.338;2022-08-19T03:27:24;101169.44;;;16.36;77.41
70011;BME280;59543;37.950;-122.338;2022-08-19T03:29:51;101154.94;;;16.21;78.07
70011;BME280;59543;37.950;-122.338;2022-08-19T03:32:17;101168.84;;;16.18;78.46
70011;BME280;59543;37.950;-122.338;2022-08-19T03:34:43;101169.88;;;16.25;78.36
70011;BME280;59543;37.950;-122.338;2022-08-19T03:37:11;101172.75;;;16.15;78.51
70011;BME280;59543;37.950;-122.338;2022-08-19T03:39:41;101165.66;;;16.14;78.45
70011;BME280;59543;37.950;-122.338;2022-08-19T03:42:08;101174.28;;;16.18;78.69
70011;BME280;59543;37.950;-122.338;2022-08-19T03:44:35;101164.25;;;16.18;78.97
70011;BME280;59543;37.950;-122.338;2022-08-19T03:47:03;101176.00;;;16.19;79.05
70011;BME280;59543;37.950;-122.338;2022-08-19T03:49:32;101167.66;;;16.20;78.70
70011;BME280;59543;37.950;-122.338;2022-08-19T03:52:00;101171.53;;;16.26;78.68
70011;BME280;59543;37.950;-122.338;2022-08-19T03:54:27;101172.75;;;16.23;78.51
70011;BME280;59543;37.950;-122.338;2022-08-19T03:56:55;101168.84;;;16.18;79.01
70011;BME280;59543;37.950;-122.338;2022-08-19T03:59:31;101169.41;;;16.13;79.75
70011;BME280;59543;37.950;-122.338;2022-08-19T04:02:02;101177.34;;;16.15;79.89
70011;BME280;59543;37.950;-122.338;2022-08-19T04:04:29;101178.88;;;16.17;79.86
70011;BME280;59543;37.950;-122.338;2022-08-19T04:06:56;101169.53;;;16.20;79.57
70011;BME280;59543;37.950;-122.338;2022-08-19T04:09:22;101169.41;;;16.13;79.90
70011;BME280;59543;37.950;-122.338;2022-08-19T04:11:51;101173.78;;;16.22;79.56
70011;BME280;59543;37.950;-122.338;2022-08-19T04:14:23;101164.72;;;16.30;79.19
70011;BME280;59543;37.950;-122.338;2022-08-19T04:16:50;101171.38;;;16.28;79.14
70011;BME280;59543;37.950;-122.338;2022-08-19T04:19:18;101175.13;;;16.18;79.61
70011;BME280;59543;37.950;-122.338;2022-08-19T04:21:46;101171.50;;;15.95;79.84
70011;BME280;59543;37.950;-122.338;2022-08-19T04:24:14;101172.34;;;15.87;79.74
70011;BME280;59543;37.950;-122.338;2022-08-19T04:26:40;101184.38;;;15.85;80.37
70011;BME280;59543;37.950;-122.338;2022-08-19T04:29:13;101182.88;;;15.66;81.25
70011;BME280;59543;37.950;-122.338;2022-08-19T04:31:41;101176.94;;;15.78;80.92
70011;BME280;59543;37.950;-122.338;2022-08-19T04:34:10;101177.97;;;15.86;80.94
70011;BME280;59543;37.950;-122.338;2022-08-19T04:36:39;101189.00;;;15.68;80.93
70011;BME280;59543;37.950;-122.338;2022-08-19T04:39:09;101183.41;;;15.69;81.04
70011;BME280;59543;37.950;-122.338;2022-08-19T04:41:36;101187.63;;;15.80;80.98
70011;BME280;59543;37.950;-122.338;2022-08-19T04:44:21;101190.84;;;15.75;80.90
70011;BME280;59543;37.950;-122.338;2022-08-19T04:46:49;101186.44;;;15.74;80.92
70011;BME280;59543;37.950;-122.338;2022-08-19T04:49:17;101179.69;;;15.70;80.93
70011;BME280;59543;37.950;-122.338;2022-08-19T04:51:46;101181.53;;;15.70;81.00
70011;BME280;59543;37.950;-122.338;2022-08-19T04:54:14;101183.41;;;15.53;81.72
70011;BME280;59543;37.950;-122.338;2022-08-19T04:56:40;101182.03;;;15.65;81.00
70011;BME280;59543;37.950;-122.338;2022-08-19T04:59:07;101184.72;;;15.49;82.14
70011;BME280;59543;37.950;-122.338;2022-08-19T05:01:34;101188.47;;;15.40;82.48
70011;BME280;59543;37.950;-122.338;2022-08-19T05:04:04;101180.50;;;15.22;84.05
70011;BME280;59543;37.950;-122.338;2022-08-19T05:06:32;101177.66;;;15.31;83.24
70011;BME280;59543;37.950;-122.338;2022-08-19T05:09:00;101173.22;;;15.39;82.70
70011;BME280;59543;37.950;-122.338;2022-08-19T05:11:30;101174.25;;;15.38;82.63
70011;BME280;59543;37.950;-122.338;2022-08-19T05:13:57;101164.56;;;15.51;82.24
70011;BME280;59543;37.950;-122.338;2022-08-19T05:16:26;101157.63;;;15.49;81.71
70011;BME280;59543;37.950;-122.338;2022-08-19T05:18:53;101150.84;;;15.37;82.21
70011;BME280;59543;37.950;-122.338;2022-08-19T05:21:41;101155.78;;;15.49;82.31
70011;BME280;59543;37.950;-122.338;2022-08-19T05:24:26;101151.69;;;15.53;82.32
70011;BME280;59543;37.950;-122.338;2022-08-19T05:26:54;101141.34;;;15.57;82.76
70011;BME280;59543;37.950;-122.338;2022-08-19T05:29:25;101153.72;;;15.60;83.09
70011;BME280;59543;37.950;-122.338;2022-08-19T05:31:53;101155.59;;;15.51;83.36
70011;BME280;59543;37.950;-122.338;2022-08-19T05:34:22;101153.03;;;15.66;83.05
70011;BME280;59543;37.950;-122.338;2022-08-19T05:36:55;101145.41;;;15.61;82.07
70011;BME280;59543;37.950;-122.338;2022-08-19T05:39:25;101140.19;;;15.68;81.09
70011;BME280;59543;37.950;-122.338;2022-08-19T05:41:55;101147.63;;;15.74;80.80
70011;BME280;59543;37.950;-122.338;2022-08-19T05:44:24;101142.72;;;15.69;81.05
70011;BME280;59543;37.950;-122.338;2022-08-19T05:46:51;101144.06;;;15.65;81.21
70011;BME280;59543;37.950;-122.338;2022-08-19T05:49:22;101141.34;;;15.57;81.63
70011;BME280;59543;37.950;-122.338;2022-08-19T05:51:49;101152.00;;;15.67;81.56
70011;BME280;59543;37.950;-122.338;2022-08-19T05:54:15;101152.03;;;15.75;81.38
70011;BME280;59543;37.950;-122.338;2022-08-19T05:56:43;101152.72;;;15.77;81.30
70011;BME280;59543;37.950;-122.338;2022-08-19T05:59:10;101147.44;;;15.67;81.57
70011;BME280;59543;37.950;-122.338;2022-08-19T06:01:39;101157.44;;;15.75;81.70
70011;BME280;59543;37.950;-122.338;2022-08-19T06:04:06;101155.59;;;15.59;82.23
70011;BME280;59543;37.950;-122.338;2022-08-19T06:06:33;101151.34;;;15.73;81.92
70011;BME280;59543;37.950;-122.338;2022-08-19T06:09:02;101158.13;;;15.77;81.34
70011;BME280;59543;37.950;-122.338;2022-08-19T06:11:33;101151.88;;;15.76;81.08
70011;BME280;59543;37.950;-122.338;2022-08-19T06:14:02;101155.78;;;15.74;81.14
70011;BME280;59543;37.950;-122.338;2022-08-19T06:16:29;101156.94;;;15.80;81.01
70011;BME280;59543;37.950;-122.338;2022-08-19T06:18:59;101144.25;;;15.72;81.18
70011;BME280;59543;37.950;-122.338;2022-08-19T06:21:28;101154.22;;;15.63;81.56
70011;BME280;59543;37.950;-122.338;2022-08-19T06:23:57;101154.91;;;15.65;81.90
70011;BME280;59543;37.950;-122.338;2022-08-19T06:26:24;101151.50;;;15.63;81.62
70011;BME280;59543;37.950;-122.338;2022-08-19T06:28:52;101142.03;;;15.75;81.08
70011;BME280;59543;37.950;-122.338;2022-08-19T06:31:21;101142.50;;;15.79;80.74
70011;BME280;59543;37.950;-122.338;2022-08-19T06:33:48;101148.31;;;15.68;81.24
70011;BME280;59543;37.950;-122.338;2022-08-19T06:36:26;101145.06;;;15.81;80.85
70011;BME280;59543;37.950;-122.338;2022-08-19T06:38:53;101135.94;;;15.73;81.00
70011;BME280;59543;37.950;-122.338;2022-08-19T06:41:20;101146.94;;;15.72;80.91
70011;BME280;59543;37.950;-122.338;2022-08-19T06:43:46;101152.16;;;15.90;80.29
70011;BME280;59543;37.950;-122.338;2022-08-19T06:46:15;101143.06;;;15.74;80.51
70011;BME280;59543;37.950;-122.338;2022-08-19T06:48:41;101141.03;;;15.68;80.97
70011;BME280;59543;37.950;-122.338;2022-08-19T06:51:08;101133.72;;;15.69;80.50
70011;BME280;59543;37.950;-122.338;2022-08-19T06:53:34;101141.16;;;15.67;80.33
70011;BME280;59543;37.950;-122.338;2022-08-19T06:56:01;101141.03;;;15.44;81.73
70011;BME280;59543;37.950;-122.338;2022-08-19T06:58:31;101145.78;;;15.42;81.72
70011;BME280;59543;37.950;-122.338;2022-08-19T07:01:04;101143.06;;;15.50;81.42
70011;BME280;59543;37.950;-122.338;2022-08-19T07:03:32;101138.28;;;15.60;81.15
70011;BME280;59543;37.950;-122.338;2022-08-19T07:06:08;101141.72;;;15.70;80.93
70011;BME280;59543;37.950;-122.338;2022-08-19T07:08:36;101145.09;;;15.72;80.50
70011;BME280;59543;37.950;-122.338;2022-08-19T07:11:09;101144.41;;;15.62;80.85
70011;BME280;59543;37.950;-122.338;2022-08-19T07:13:36;101141.19;;;15.59;80.64
70011;BME280;59543;37.950;-122.338;2022-08-19T07:16:05;101138.28;;;15.52;80.57
70011;BME280;59543;37.950;-122.338;2022-08-19T07:18:32;101136.13;;;15.55;80.40
70011;BME280;59543;37.950;-122.338;2022-08-19T07:21:07;101141.03;;;15.27;81.36
70011;BME280;59543;37.950;-122.338;2022-08-19T07:23:33;101141.53;;;15.06;82.36
70011;BME280;59543;37.950;-122.338;2022-08-19T07:26:08;101142.75;;;15.20;82.27
70011;BME280;59543;37.950;-122.338;2022-08-19T07:28:35;101135.28;;;15.30;81.77
70011;BME280;59543;37.950;-122.338;2022-08-19T07:31:07;101134.28;;;15.31;81.95
70011;BME280;59543;37.950;-122.338;2022-08-19T07:33:34;101131.03;;;15.44;81.10
70011;BME280;59543;37.950;-122.338;2022-08-19T07:36:04;101135.78;;;15.34;81.50
70011;BME280;59543;37.950;-122.338;2022-08-19T07:38:31;101132.22;;;15.42;81.69
70011;BME280;59543;37.950;-122.338;2022-08-19T07:40:58;101129.34;;;15.35;81.96
70011;BME280;59543;37.950;-122.338;2022-08-19T07:43:24;101134.94;;;15.42;81.71
70011;BME280;59543;37.950;-122.338;2022-08-19T07:45:53;101139.69;;;15.23;82.65
70011;BME280;59543;37.950;-122.338;2022-08-19T07:48:23;101141.38;;;15.24;82.93
70011;BME280;59543;37.950;-122.338;2022-08-19T07:51:03;101144.44;;;15.29;82.73
70011;BME280;59543;37.950;-122.338;2022-08-19T07:53:31;101149.31;;;15.42;82.40
70011;BME280;59543;37.950;-122.338;2022-08-19T07:56:02;101154.09;;;15.32;82.39
70011;BME280;59543;37.950;-122.338;2022-08-19T07:58:36;101149.84;;;15.38;82.13
70011;BME280;59543;37.950;-122.338;2022-08-19T08:01:05;101142.22;;;15.41;81.92
70011;BME280;59543;37.950;-122.338;2022-08-19T08:03:32;101142.38;;;15.40;81.83
70011;BME280;59543;37.950;-122.338;2022-08-19T08:06:17;101141.34;;;15.49;81.30
70011;BME280;59543;37.950;-122.338;2022-08-19T08:09:04;101146.13;;;15.47;80.98
70011;BME280;59543;37.950;-122.338;2022-08-19T08:11:54;101135.78;;;15.42;80.73
70011;BME280;59543;37.950;-122.338;2022-08-19T08:14:39;101129.00;;;15.46;80.31
70011;BME280;59543;37.950;-122.338;2022-08-19T08:17:07;101124.13;;;15.25;81.04
70011;BME280;59543;37.950;-122.338;2022-08-19T08:19:37;101119.03;;;15.14;81.65
70011;BME280;59543;37.950;-122.338;2022-08-19T08:22:05;101116.66;;;15.19;81.60
70011;BME280;59543;37.950;-122.338;2022-08-19T08:24:32;101116.34;;;15.22;81.19
70011;BME280;59543;37.950;-122.338;2022-08-19T08:27:00;101116.47;;;15.21;81.39
70011;BME280;59543;37.950;-122.338;2022-08-19T08:29:28;101110.91;;;15.14;81.71
70011;BME280;59543;37.950;-122.338;2022-08-19T08:31:55;101104.97;;;15.27;81.24
70011;BME280;59543;37.950;-122.338;2022-08-19T08:34:21;101098.34;;;15.29;81.16
70011;BME280;59543;37.950;-122.338;2022-08-19T08:36:48;101098.69;;;15.18;81.57
70011;BME280;59543;37.950;-122.338;2022-08-19T08:39:18;101097.34;;;15.22;81.18
70011;BME280;59543;37.950;-122.338;2022-08-19T08:44:34;101103.44;;;15.24;81.09
70011;BME280;59543;37.950;-122.338;2022-08-19T08:47:10;101096.19;;;15.17;81.20
70011;BME280;59543;37.950;-122.338;2022-08-19T08:52:18;101093.63;;;15.23;81.51
70011;BME280;59543;37.950;-122.338;2022-08-19T08:54:49;101094.31;;;15.17;81.79
70011;BME280;59543;37.950;-122.338;2022-08-19T08:57:37;101089.88;;;15.32;81.28
70011;BME280;59543;37.950;-122.338;2022-08-19T09:00:12;101089.56;;;15.19;81.73
70011;BME280;59543;37.950;-122.338;2022-08-19T09:02:43;101088.69;;;15.19;81.72
70011;BME280;59543;37.950;-122.338;2022-08-19T09:05:10;101085.50;;;15.23;81.57
70011;BME280;59543;37.950;-122.338;2022-08-19T09:10:44;101087.84;;;15.26;80.56
70011;BME280;59543;37.950;-122.338;2022-08-19T09:16:13;101088.88;;;15.17;80.78
70011;BME280;59543;37.950;-122.338;2022-08-19T09:19:00;101089.03;;;15.16;80.85
70011;BME280;59543;37.950;-122.338;2022-08-19T09:21:27;101092.44;;;15.09;81.03
70011;BME280;59543;37.950;-122.338;2022-08-19T09:23:54;101092.47;;;15.01;80.97
70011;BME280;59543;37.950;-122.338;2022-08-19T09:26:22;101079.91;;;15.00;80.61
70011;BME280;59543;37.950;-122.338;2022-08-19T09:28:51;101069.91;;;15.01;80.63
70011;BME280;59543;37.950;-122.338;2022-08-19T09:31:23;101070.09;;;14.99;80.35
70011;BME280;59543;37.950;-122.338;2022-08-19T09:33:51;101067.53;;;14.98;80.75
70011;BME280;59543;37.950;-122.338;2022-08-19T09:36:20;101072.44;;;14.86;81.39
70011;BME280;59543;37.950;-122.338;2022-08-19T09:38:48;101071.28;;;14.80;81.90
70011;BME280;59543;37.950;-122.338;2022-08-19T09:41:18;101068.41;;;14.90;81.43
70011;BME280;59543;37.950;-122.338;2022-08-19T09:43:47;101078.41;;;14.90;81.19
70011;BME280;59543;37.950;-122.338;2022-08-19T09:46:14;101078.88;;;14.77;81.31
70011;BME280;59543;37.950;-122.338;2022-08-19T09:48:42;101082.78;;;14.91;81.07
70011;BME280;59543;37.950;-122.338;2022-08-19T09:51:15;101069.56;;;15.04;80.69
70011;BME280;59543;37.950;-122.338;2022-08-19T09:53:44;101069.44;;;14.81;82.16
70011;BME280;59543;37.950;-122.338;2022-08-19T09:56:11;101068.06;;;14.93;81.94
70011;BME280;59543;37.950;-122.338;2022-08-19T09:58:38;101068.56;;;15.05;81.71
70011;BME280;59543;37.950;-122.338;2022-08-19T10:01:06;101066.88;;;14.96;81.96
70011;BME280;59543;37.950;-122.338;2022-08-19T10:03:34;101055.38;;;14.94;81.68
70011;BME280;59543;37.950;-122.338;2022-08-19T10:06:02;101059.09;;;14.93;81.69
70011;BME280;59543;37.950;-122.338;2022-08-19T10:08:31;101060.28;;;14.82;81.96
70011;BME280;59543;37.950;-122.338;2022-08-19T10:10:59;101059.44;;;14.81;81.89
70011;BME280;59543;37.950;-122.338;2022-08-19T10:13:27;101071.09;;;14.82;81.36
70011;BME280;59543;37.950;-122.338;2022-08-19T10:15:56;101067.91;;;14.78;81.20
70011;BME280;59543;37.950;-122.338;2022-08-19T10:18:27;101065.69;;;14.82;80.94
70011;BME280;59543;37.950;-122.338;2022-08-19T10:21:10;101070.09;;;14.75;80.86
70011;BME280;59543;37.950;-122.338;2022-08-19T10:23:38;101067.22;;;14.60;81.55
70011;BME280;59543;37.950;-122.338;2022-08-19T10:26:06;101064.00;;;14.73;81.19
70011;BME280;59543;37.950;-122.338;2022-08-19T10:28:36;101059.38;;;14.49;82.08
70011;BME280;59543;37.950;-122.338;2022-08-19T10:31:12;101061.44;;;14.55;82.06
70011;BME280;59543;37.950;-122.338;2022-08-19T10:33:39;101052.47;;;14.71;81.47
70011;BME280;59543;37.950;-122.338;2022-08-19T10:36:25;101049.06;;;14.52;82.61
70011;BME280;59543;37.950;-122.338;2022-08-19T10:38:54;101046.72;;;14.57;82.81
70011;BME280;59543;37.950;-122.338;2022-08-19T10:41:26;101042.00;;;14.59;83.17
70011;BME280;59543;37.950;-122.338;2022-08-19T10:44:02;101048.75;;;14.63;83.38
70011;BME280;59543;37.950;-122.338;2022-08-19T10:46:29;101058.56;;;14.56;83.80
70011;BME280;59543;37.950;-122.338;2022-08-19T10:49:00;101049.22;;;14.51;84.30
70011;BME280;59543;37.950;-122.338;2022-08-19T10:51:27;101047.22;;;14.61;83.94
70011;BME280;59543;37.950;-122.338;2022-08-19T10:54:12;101046.91;;;14.64;83.89
70011;BME280;59543;37.950;-122.338;2022-08-19T10:56:38;101042.50;;;14.63;83.66
70011;BME280;59543;37.950;-122.338;2022-08-19T11:01:48;101046.84;;;14.48;84.41
70011;BME280;59543;37.950;-122.338;2022-08-19T11:04:14;101045.88;;;14.57;83.62
70011;BME280;59543;37.950;-122.338;2022-08-19T11:06:47;101045.03;;;14.56;83.53
70011;BME280;59543;37.950;-122.338;2022-08-19T11:09:16;101043.84;;;14.59;83.49
70011;BME280;59543;37.950;-122.338;2022-08-19T11:11:43;101047.22;;;14.53;83.45
70011;BME280;59543;37.950;-122.338;2022-08-19T11:14:14;101034.03;;;14.58;83.36
70011;BME280;59543;37.950;-122.338;2022-08-19T11:16:42;101048.06;;;14.61;83.06
70011;BME280;59543;37.950;-122.338;2022-08-19T11:19:10;101038.59;;;14.57;83.15
70011;BME280;59543;37.950;-122.338;2022-08-19T11:21:39;101037.25;;;14.61;83.28
70011;BME280;59543;37.950;-122.338;2022-08-19T11:24:08;101040.97;;;14.60;83.73
70011;BME280;59543;37.950;-122.338;2022-08-19T11:26:36;101048.09;;;14.53;84.21
70011;BME280;59543;37.950;-122.338;2022-08-19T11:29:05;101047.41;;;14.51;84.73
70011;BME280;59543;37.950;-122.338;2022-08-19T11:31:34;101048.25;;;14.60;83.94
70011;BME280;59543;37.950;-122.338;2022-08-19T11:34:07;101045.53;;;14.52;84.18
70011;BME280;59543;37.950;-122.338;2022-08-19T11:36:37;101044.28;;;14.38;84.76
70011;BME280;59543;37.950;-122.338;2022-08-19T11:39:05;101035.69;;;14.43;84.70
70011;BME280;59543;37.950;-122.338;2022-08-19T11:41:32;101055.00;;;14.56;84.21
70011;BME280;59543;37.950;-122.338;2022-08-19T11:43:58;101048.41;;;14.67;83.65
70011;BME280;59543;37.950;-122.338;2022-08-19T11:46:26;101045.84;;;14.49;83.50
70011;BME280;59543;37.950;-122.338;2022-08-19T11:48:56;101049.06;;;14.52;82.92
70011;BME280;59543;37.950;-122.338;2022-08-19T11:51:23;101043.97;;;14.49;82.81
70011;BME280;59543;37.950;-122.338;2022-08-19T11:53:51;101041.09;;;14.43;83.50
70011;BME280;59543;37.950;-122.338;2022-08-19T11:56:19;101042.13;;;14.41;83.85
70011;BME280;59543;37.950;-122.338;2022-08-19T11:58:45;101037.41;;;14.52;83.59
70011;BME280;59543;37.950;-122.338;2022-08-19T12:01:14;101034.03;;;14.58;83.70
70011;BME280;59543;37.950;-122.338;2022-08-19T12:03:45;101024.38;;;14.55;83.94
70011;BME280;59543;37.950;-122.338;2022-08-19T12:06:16;101030.31;;;14.67;83.63
70011;BME280;59543;37.950;-122.338;2022-08-19T12:08:45;101037.44;;;14.68;83.58
70011;BME280;59543;37.950;-122.338;2022-08-19T12:11:13;101033.84;;;14.68;83.79
70011;BME280;59543;37.950;-122.338;2022-08-19T12:13:40;101036.75;;;14.74;83.92
70011;BME280;59543;37.950;-122.338;2022-08-19T12:16:12;101030.31;;;14.83;83.79
70011;BME280;59543;37.950;-122.338;2022-08-19T12:18:39;101026.28;;;14.71;84.03
70011;BME280;59543;37.950;-122.338;2022-08-19T12:21:19;101019.13;;;14.62;83.94
70011;BME280;59543;37.950;-122.338;2022-08-19T12:23:48;101018.13;;;14.79;83.27
70011;BME280;59543;37.950;-122.338;2022-08-19T12:26:15;101020.34;;;14.59;83.45
70011;BME280;59543;37.950;-122.338;2022-08-19T12:28:42;101027.75;;;14.74;83.04
70011;BME280;59543;37.950;-122.338;2022-08-19T12:31:08;101033.53;;;14.79;82.86
70011;BME280;59543;37.950;-122.338;2022-08-19T12:33:38;101040.63;;;14.80;83.18
70011;BME280;59543;37.950;-122.338;2022-08-19T12:36:06;101032.69;;;14.86;82.92
70011;BME280;59543;37.950;-122.338;2022-08-19T12:38:33;101041.50;;;14.80;83.33
70011;BME280;59543;37.950;-122.338;2022-08-19T12:41:00;101041.97;;;14.68;83.75
70011;BME280;59543;37.950;-122.338;2022-08-19T12:43:28;101042.19;;;14.74;83.15
70011;BME280;59543;37.950;-122.338;2022-08-19T12:45:55;101051.66;;;14.78;83.18